Time;durP1;ratioP1;P1;durP2;ratioP2;P2;SDS_P1;SDS_P2;PMS_P1;PMS_P2;Temp;Humidity;BMP_temperature;BMP_pressure;BME280_temperature;BME280_humidity;BME280_pressure;Samples;Min_cycle;Max_cycle;Signal;HPM_P1;HPM_P2
2023/12/14 00:00:31;;;;;;;17.20;11.67;;;;;;;;;;5074525;28;20471;-59
2023/12/14 00:02:58;;;;;;;14.75;10.20;;;;;;;;;;5074481;28;20440;-59
2023/12/14 00:05:25;;;;;;;16.20;10.52;;;;;;;;;;5074223;28;20308;-59
2023/12/14 00:07:53;;;;;;;13.98;10.15;;;;;;;;;;5074382;28;20744;-59
2023/12/14 00:10:21;;;;;;;15.50;10.82;;;;;;;;;;5074383;28;20276;-59
2023/12/14 00:12:48;;;;;;;16.20;11.85;;;;;;;;;;5074196;28;20189;-59
2023/12/14 00:15:15;;;;;;;17.57;11.70;;;;;;;;;;5074123;28;20194;-59
2023/12/14 00:17:42;;;;;;;16.10;11.30;;;;;;;;;;5074040;28;20449;-59
2023/12/14 00:20:10;;;;;;;15.68;10.43;;;;;;;;;;5074039;28;20212;-59
2023/12/14 00:22:38;;;;;;;15.30;10.32;;;;;;;;;;5074155;28;20243;-59
2023/12/14 00:25:06;;;;;;;13.77;10.97;;;;;;;;;;5074114;28;20189;-59
2023/12/14 00:27:33;;;;;;;15.48;11.25;;;;;;;;;;5073894;28;20483;-59
2023/12/14 00:30:00;;;;;;;15.10;10.20;;;;;;;;;;5073856;28;20193;-59
2023/12/14 00:32:27;;;;;;;14.88;10.75;;;;;;;;;;5073390;28;20882;-59
2023/12/14 00:34:54;;;;;;;13.95;10.05;;;;;;;;;;5073681;28;20285;-59
2023/12/14 00:37:21;;;;;;;13.52;10.07;;;;;;;;;;5074036;28;20194;-59
2023/12/14 00:39:48;;;;;;;16.45;11.15;;;;;;;;;;5073804;28;20276;-59
2023/12/14 00:42:16;;;;;;;11.82;9.80;;;;;;;;;;5073923;28;20189;-59
2023/12/14 00:44:43;;;;;;;15.02;10.65;;;;;;;;;;5073608;28;20196;-59
2023/12/14 00:47:10;;;;;;;14.93;10.30;;;;;;;;;;5073346;28;20681;-59
2023/12/14 00:49:37;;;;;;;17.42;11.68;;;;;;;;;;5073608;28;20439;-59
2023/12/14 00:52:05;;;;;;;15.85;11.27;;;;;;;;;;5073532;28;20189;-59
2023/12/14 00:54:32;;;;;;;13.00;10.07;;;;;;;;;;5073294;28;20189;-59
2023/12/14 00:56:59;;;;;;;16.63;10.90;;;;;;;;;;5073429;28;20291;-59
2023/12/14 00:59:27;;;;;;;14.40;10.40;;;;;;;;;;5073259;28;20201;-59
2023/12/14 01:01:54;;;;;;;15.32;10.60;;;;;;;;;;5073190;28;20217;-59
2023/12/14 01:04:21;;;;;;;13.93;10.77;;;;;;;;;;5073635;28;20276;-59
2023/12/14 01:06:48;;;;;;;18.33;10.57;;;;;;;;;;5073241;28;20318;-59
2023/12/14 01:09:15;;;;;;;13.70;10.68;;;;;;;;;;5073230;28;20191;-59
2023/12/14 01:11:42;;;;;;;14.65;10.30;;;;;;;;;;5073168;28;20272;-59
2023/12/14 01:14:09;;;;;;;15.50;11.95;;;;;;;;;;5073098;28;20189;-59
2023/12/14 01:16:37;;;;;;;17.67;12.40;;;;;;;;;;5072976;28;20285;-59
2023/12/14 01:19:05;;;;;;;14.83;10.87;;;;;;;;;;5073244;28;20189;-59
2023/12/14 01:21:32;;;;;;;14.85;10.57;;;;;;;;;;5073091;28;20494;-59
2023/12/14 01:24:00;;;;;;;14.63;10.18;;;;;;;;;;5073069;28;20635;-59
2023/12/14 01:26:27;;;;;;;13.10;10.85;;;;;;;;;;5073425;28;20659;-59
2023/12/14 01:28:54;;;;;;;18.93;11.27;;;;;;;;;;5072868;28;20299;-59
2023/12/14 01:31:23;;;;;;;16.85;10.85;;;;;;;;;;5073084;28;20447;-59
2023/12/14 01:33:51;;;;;;;17.27;11.30;;;;;;;;;;5073224;28;20280;-59
2023/12/14 01:36:21;;;;;;;15.65;9.90;;;;;;;;;;5072975;28;20219;-59
2023/12/14 01:38:48;;;;;;;17.40;9.95;;;;;;;;;;5072894;28;20196;-59
2023/12/14 01:41:15;;;;;;;15.35;10.43;;;;;;;;;;5072860;28;20649;-59
2023/12/14 01:43:42;;;;;;;11.35;8.73;;;;;;;;;;5073013;28;20288;-59
2023/12/14 01:46:10;;;;;;;15.10;9.77;;;;;;;;;;5076138;28;20189;-59
2023/12/14 01:48:37;;;;;;;14.18;9.55;;;;;;;;;;5076817;28;20723;-59
2023/12/14 01:51:05;;;;;;;12.52;10.95;;;;;;;;;;5076963;28;20187;-59
2023/12/14 01:53:32;;;;;;;12.00;9.52;;;;;;;;;;5076887;28;20195;-59
2023/12/14 01:55:59;;;;;;;13.52;9.50;;;;;;;;;;5076729;28;20327;-59
2023/12/14 01:58:26;;;;;;;15.18;10.45;;;;;;;;;;5076983;28;20620;-59
2023/12/14 02:00:57;;;;;;;12.20;8.75;;;;;;;;;;5076876;28;20197;-58
2023/12/14 02:03:24;;;;;;;10.50;8.15;;;;;;;;;;5076669;28;20704;-59
2023/12/14 02:05:51;;;;;;;12.07;9.40;;;;;;;;;;5076615;28;20195;-59
2023/12/14 02:08:19;;;;;;;15.23;9.90;;;;;;;;;;5076410;28;20225;-59
2023/12/14 02:10:46;;;;;;;13.38;9.63;;;;;;;;;;5076967;28;20299;-59
2023/12/14 02:13:13;;;;;;;11.55;8.30;;;;;;;;;;5076648;28;20276;-59
2023/12/14 02:15:40;;;;;;;13.30;8.55;;;;;;;;;;5076480;28;20551;-59
2023/12/14 02:18:07;;;;;;;11.13;8.85;;;;;;;;;;5076418;28;20648;-58
2023/12/14 02:20:34;;;;;;;12.18;8.80;;;;;;;;;;5076340;28;20272;-58
2023/12/14 02:23:02;;;;;;;11.80;8.50;;;;;;;;;;5076257;28;20189;-59
2023/12/14 02:25:29;;;;;;;12.88;8.85;;;;;;;;;;5076402;28;20185;-59
2023/12/14 02:27:56;;;;;;;11.23;8.90;;;;;;;;;;5076226;28;20221;-59
2023/12/14 02:30:23;;;;;;;11.85;8.43;;;;;;;;;;5076217;28;20186;-59
2023/12/14 02:32:50;;;;;;;12.52;8.20;;;;;;;;;;5076078;28;20547;-59
2023/12/14 02:35:18;;;;;;;12.63;8.85;;;;;;;;;;5076063;28;20196;-59
2023/12/14 02:37:45;;;;;;;12.02;8.75;;;;;;;;;;5075899;28;20193;-59
2023/12/14 02:40:13;;;;;;;11.55;7.88;;;;;;;;;;5076098;28;20259;-59
2023/12/14 02:42:40;;;;;;;11.23;8.45;;;;;;;;;;5076043;28;20272;-59
2023/12/14 02:45:08;;;;;;;12.82;7.97;;;;;;;;;;5075905;28;20606;-59
2023/12/14 02:47:35;;;;;;;8.68;6.93;;;;;;;;;;5075730;28;20255;-59
2023/12/14 02:50:02;;;;;;;9.02;7.20;;;;;;;;;;5076158;28;20185;-59
2023/12/14 02:52:29;;;;;;;11.13;7.97;;;;;;;;;;5075839;28;20549;-59
2023/12/14 02:54:56;;;;;;;8.77;7.75;;;;;;;;;;5075717;28;20232;-59
2023/12/14 02:57:24;;;;;;;10.10;7.10;;;;;;;;;;5075434;28;20195;-59
2023/12/14 02:59:51;;;;;;;13.55;7.68;;;;;;;;;;5075703;28;20196;-59
2023/12/14 03:02:18;;;;;;;10.23;7.80;;;;;;;;;;5075404;28;20258;-59
2023/12/14 03:04:45;;;;;;;10.65;8.10;;;;;;;;;;5075416;28;20444;-59
2023/12/14 03:07:12;;;;;;;12.30;7.47;;;;;;;;;;5075553;28;20303;-59
2023/12/14 03:09:43;;;;;;;9.57;7.95;;;;;;;;;;5075585;28;20217;-59
2023/12/14 03:12:10;;;;;;;9.85;7.00;;;;;;;;;;5075424;28;20667;-59
2023/12/14 03:14:38;;;;;;;9.80;7.47;;;;;;;;;;5075761;28;20581;-59
2023/12/14 03:17:05;;;;;;;11.82;7.85;;;;;;;;;;5075230;28;20676;-59
2023/12/14 03:19:32;;;;;;;9.80;7.35;;;;;;;;;;5075195;28;20706;-59
2023/12/14 03:21:59;;;;;;;13.05;7.90;;;;;;;;;;5075338;28;20195;-59
2023/12/14 03:24:26;;;;;;;8.70;7.20;;;;;;;;;;5075244;28;20281;-59
2023/12/14 03:26:53;;;;;;;10.27;8.05;;;;;;;;;;5075037;28;20293;-59
2023/12/14 03:29:21;;;;;;;11.00;7.75;;;;;;;;;;5075222;28;20189;-59
2023/12/14 03:31:49;;;;;;;11.57;7.85;;;;;;;;;;5074989;28;20193;-59
2023/12/14 03:34:16;;;;;;;8.45;7.35;;;;;;;;;;5075219;28;20691;-59
2023/12/14 03:36:43;;;;;;;11.25;8.88;;;;;;;;;;5075064;28;20192;-59
2023/12/14 03:39:10;;;;;;;9.77;7.18;;;;;;;;;;5074801;28;20193;-59
2023/12/14 03:41:37;;;;;;;10.07;7.78;;;;;;;;;;5074752;28;20355;-59
2023/12/14 03:44:04;;;;;;;13.63;7.93;;;;;;;;;;5074784;28;20279;-59
2023/12/14 03:46:31;;;;;;;12.77;7.70;;;;;;;;;;5074927;28;20215;-59
2023/12/14 03:48:59;;;;;;;12.18;9.00;;;;;;;;;;5074760;28;20599;-59
2023/12/14 03:51:26;;;;;;;11.60;7.50;;;;;;;;;;5074660;28;20279;-59
2023/12/14 03:53:53;;;;;;;12.98;7.35;;;;;;;;;;5074618;28;20452;-59
2023/12/14 03:56:20;;;;;;;12.87;9.50;;;;;;;;;;5074633;28;20247;-59
2023/12/14 03:58:47;;;;;;;12.55;8.70;;;;;;;;;;5074395;28;20452;-59
2023/12/14 04:01:17;;;;;;;11.77;7.68;;;;;;;;;;5074901;28;20284;-59
2023/12/14 04:03:44;;;;;;;12.63;8.50;;;;;;;;;;5074368;28;20723;-59
2023/12/14 04:06:13;;;;;;;11.18;7.43;;;;;;;;;;5074468;28;20536;-59
2023/12/14 04:08:40;;;;;;;14.43;8.73;;;;;;;;;;5073552;28;20217;-59
2023/12/14 04:11:07;;;;;;;10.30;7.80;;;;;;;;;;5074170;28;20279;-59
2023/12/14 04:13:34;;;;;;;12.70;8.25;;;;;;;;;;5074127;28;20691;-59
2023/12/14 04:16:02;;;;;;;11.05;8.65;;;;;;;;;;5074420;28;20276;-59
2023/12/14 04:18:29;;;;;;;10.77;7.25;;;;;;;;;;5074252;28;20619;-59
2023/12/14 04:20:56;;;;;;;9.95;7.75;;;;;;;;;;5074013;28;20747;-59
2023/12/14 04:23:26;;;;;;;12.60;8.60;;;;;;;;;;5074018;28;20548;-59
2023/12/14 04:25:53;;;;;;;10.70;7.80;;;;;;;;;;5073832;28;20239;-59
2023/12/14 04:28:20;;;;;;;9.13;6.95;;;;;;;;;;5073932;28;20489;-59
2023/12/14 04:30:46;;;;;;;9.55;7.40;;;;;;;;;;5073980;28;20296;-59
2023/12/14 04:33:13;;;;;;;16.02;8.13;;;;;;;;;;5073934;28;20276;-59
2023/12/14 04:35:40;;;;;;;9.98;6.70;;;;;;;;;;5073787;28;20200;-59
2023/12/14 04:38:08;;;;;;;10.20;7.15;;;;;;;;;;5073670;28;20279;-59
2023/12/14 04:40:36;;;;;;;9.65;7.25;;;;;;;;;;5073560;28;20185;-59
2023/12/14 04:43:03;;;;;;;12.20;8.40;;;;;;;;;;5073812;28;20216;-59
2023/12/14 04:45:30;;;;;;;13.18;8.45;;;;;;;;;;5073738;28;20718;-58
2023/12/14 04:47:57;;;;;;;11.10;7.43;;;;;;;;;;5073516;28;20267;-59
2023/12/14 04:50:24;;;;;;;10.95;7.65;;;;;;;;;;5073605;28;20604;-59
2023/12/14 04:52:51;;;;;;;11.05;8.05;;;;;;;;;;5073339;28;20280;-59
2023/12/14 04:55:18;;;;;;;12.45;7.60;;;;;;;;;;5073330;28;20221;-59
2023/12/14 04:57:48;;;;;;;13.00;8.65;;;;;;;;;;5073493;28;20193;-59
2023/12/14 05:00:16;;;;;;;12.15;7.05;;;;;;;;;;5073503;28;20326;-59
2023/12/14 05:02:43;;;;;;;9.10;6.82;;;;;;;;;;5073237;28;20281;-61
2023/12/14 05:05:10;;;;;;;9.57;7.70;;;;;;;;;;5073473;28;20284;-59
2023/12/14 05:07:37;;;;;;;13.15;7.47;;;;;;;;;;5073268;28;20284;-59
2023/12/14 05:10:04;;;;;;;10.82;6.93;;;;;;;;;;5073621;28;20189;-58
2023/12/14 05:12:31;;;;;;;8.25;6.75;;;;;;;;;;5073288;28;20189;-59
2023/12/14 05:14:59;;;;;;;10.47;6.87;;;;;;;;;;5073150;28;20189;-59
2023/12/14 05:17:26;;;;;;;7.45;6.03;;;;;;;;;;5072992;28;21045;-58
2023/12/14 05:19:53;;;;;;;8.90;6.90;;;;;;;;;;5073032;28;20826;-59
2023/12/14 05:22:20;;;;;;;10.53;7.30;;;;;;;;;;5072956;28;20623;-59
2023/12/14 05:24:48;;;;;;;8.25;6.47;;;;;;;;;;5073242;28;20450;-59
2023/12/14 05:27:15;;;;;;;7.72;6.72;;;;;;;;;;5073041;28;20210;-58
2023/12/14 05:29:42;;;;;;;9.57;6.85;;;;;;;;;;5072634;28;20775;-59
2023/12/14 05:32:10;;;;;;;8.07;6.93;;;;;;;;;;5072843;28;20194;-59
2023/12/14 05:34:37;;;;;;;7.07;6.00;;;;;;;;;;5072842;28;20283;-59
2023/12/14 05:37:04;;;;;;;6.88;6.18;;;;;;;;;;5072759;28;20601;-59
2023/12/14 05:39:31;;;;;;;6.80;5.90;;;;;;;;;;5072888;28;20712;-59
2023/12/14 05:41:58;;;;;;;9.73;6.88;;;;;;;;;;5072997;28;20284;-59
2023/12/14 05:44:25;;;;;;;6.22;5.63;;;;;;;;;;5072876;28;20228;-59
2023/12/14 05:46:52;;;;;;;7.65;6.70;;;;;;;;;;5072905;28;20280;-59
2023/12/14 05:49:21;;;;;;;7.32;6.65;;;;;;;;;;5072563;28;20304;-59
2023/12/14 05:51:47;;;;;;;7.00;6.30;;;;;;;;;;5072847;28;20194;-59
2023/12/14 05:54:14;;;;;;;6.47;5.87;;;;;;;;;;5072651;28;20731;-59
2023/12/14 05:56:41;;;;;;;7.80;6.40;;;;;;;;;;5072738;28;20558;-59
2023/12/14 05:59:08;;;;;;;6.95;6.25;;;;;;;;;;5072641;28;20193;-59
2023/12/14 06:01:36;;;;;;;7.88;6.35;;;;;;;;;;5072594;28;20195;-59
2023/12/14 06:04:03;;;;;;;7.03;6.33;;;;;;;;;;5072245;28;20248;-59
2023/12/14 06:06:31;;;;;;;6.97;6.37;;;;;;;;;;5072774;28;20456;-58
2023/12/14 06:08:58;;;;;;;6.95;6.35;;;;;;;;;;5072504;28;20914;-59
2023/12/14 06:11:25;;;;;;;7.32;6.63;;;;;;;;;;5072547;28;20281;-59
2023/12/14 06:13:52;;;;;;;8.80;6.70;;;;;;;;;;5072459;28;20284;-59
2023/12/14 06:16:19;;;;;;;7.20;6.50;;;;;;;;;;5072364;28;20276;-58
2023/12/14 06:18:46;;;;;;;6.78;6.15;;;;;;;;;;5072886;28;20200;-59
2023/12/14 06:21:13;;;;;;;6.90;6.20;;;;;;;;;;5072546;28;20196;-59
2023/12/14 06:23:42;;;;;;;7.60;6.60;;;;;;;;;;5072543;28;20553;-59
2023/12/14 06:26:09;;;;;;;6.93;5.70;;;;;;;;;;5072346;28;20279;-59
2023/12/14 06:28:35;;;;;;;9.00;8.07;;;;;;;;;;5072356;28;20258;-59
2023/12/14 06:31:02;;;;;;;11.95;7.90;;;;;;;;;;5073323;28;20649;-59
2023/12/14 06:33:29;;;;;;;7.50;6.80;;;;;;;;;;5076104;28;20280;-59
2023/12/14 06:35:56;;;;;;;6.80;5.80;;;;;;;;;;5076068;28;20538;-59
2023/12/14 06:38:23;;;;;;;7.78;7.03;;;;;;;;;;5075932;28;20250;-59
2023/12/14 06:40:51;;;;;;;8.68;6.60;;;;;;;;;;5075912;28;20201;-59
2023/12/14 06:43:18;;;;;;;9.95;6.32;;;;;;;;;;5075861;28;20597;-59
2023/12/14 06:45:45;;;;;;;7.47;6.60;;;;;;;;;;5075717;28;20189;-59
2023/12/14 06:48:12;;;;;;;7.50;6.70;;;;;;;;;;5075625;28;20216;-59
2023/12/14 06:50:39;;;;;;;6.85;6.15;;;;;;;;;;5075662;28;20552;-59
2023/12/14 06:53:06;;;;;;;10.18;5.60;;;;;;;;;;5075230;28;20200;-59
2023/12/14 06:55:33;;;;;;;7.25;5.80;;;;;;;;;;5075298;28;20308;-58
2023/12/14 06:58:01;;;;;;;7.05;6.05;;;;;;;;;;5075411;28;20223;-59
2023/12/14 07:00:29;;;;;;;7.45;6.63;;;;;;;;;;5075618;28;20280;-59
2023/12/14 07:02:56;;;;;;;8.75;6.93;;;;;;;;;;5075619;28;20186;-59
2023/12/14 07:05:23;;;;;;;7.18;6.40;;;;;;;;;;5075386;28;20189;-59
2023/12/14 07:07:50;;;;;;;6.80;6.10;;;;;;;;;;5075357;28;20225;-59
2023/12/14 07:10:16;;;;;;;7.85;6.90;;;;;;;;;;5075371;28;20312;-59
2023/12/14 07:12:43;;;;;;;9.30;6.75;;;;;;;;;;5075170;28;20276;-58
2023/12/14 07:15:12;;;;;;;7.97;7.10;;;;;;;;;;5075396;28;20280;-59
2023/12/14 07:17:39;;;;;;;7.43;6.47;;;;;;;;;;5075342;28;20272;-59
2023/12/14 07:20:07;;;;;;;8.88;7.35;;;;;;;;;;5075200;28;20587;-59
2023/12/14 07:22:36;;;;;;;9.45;7.47;;;;;;;;;;5075103;28;20216;-59
2023/12/14 07:25:03;;;;;;;9.95;8.15;;;;;;;;;;5074926;28;20276;-59
2023/12/14 07:27:30;;;;;;;8.00;7.15;;;;;;;;;;5075277;28;20186;-59
2023/12/14 07:29:57;;;;;;;9.60;7.28;;;;;;;;;;5075020;28;20262;-59
2023/12/14 07:32:25;;;;;;;10.15;7.55;;;;;;;;;;5074957;28;20284;-59
2023/12/14 07:34:52;;;;;;;9.93;8.52;;;;;;;;;;5074897;28;20189;-59
2023/12/14 07:37:19;;;;;;;11.15;8.30;;;;;;;;;;5074912;28;20277;-59
2023/12/14 07:39:46;;;;;;;12.60;9.45;;;;;;;;;;5074736;28;20276;-59
2023/12/14 07:42:15;;;;;;;13.65;9.70;;;;;;;;;;5073786;28;20193;-59
2023/12/14 07:44:41;;;;;;;13.40;10.93;;;;;;;;;;5074791;28;20189;-59
2023/12/14 07:47:08;;;;;;;11.65;8.85;;;;;;;;;;5074800;28;20189;-59
2023/12/14 07:49:37;;;;;;;11.18;9.07;;;;;;;;;;5074285;28;20304;-59
2023/12/14 07:52:04;;;;;;;14.43;9.88;;;;;;;;;;5074511;28;20281;-59
2023/12/14 07:54:31;;;;;;;11.65;8.98;;;;;;;;;;5074161;28;20276;-59
2023/12/14 07:56:58;;;;;;;9.82;8.25;;;;;;;;;;5074643;28;20222;-59
2023/12/14 07:59:25;;;;;;;12.35;9.80;;;;;;;;;;5074132;28;20884;-59
2023/12/14 08:01:52;;;;;;;12.00;9.63;;;;;;;;;;5074329;28;20191;-59
2023/12/14 08:04:19;;;;;;;11.00;9.88;;;;;;;;;;5074128;28;20659;-59
2023/12/14 08:06:47;;;;;;;11.32;9.70;;;;;;;;;;5073947;28;20276;-61
2023/12/14 08:09:14;;;;;;;12.38;9.75;;;;;;;;;;5074126;28;20251;-60
2023/12/14 08:11:42;;;;;;;12.25;8.93;;;;;;;;;;5074108;28;20201;-60
2023/12/14 08:14:09;;;;;;;12.60;10.00;;;;;;;;;;5074098;28;20280;-60
2023/12/14 08:16:36;;;;;;;10.93;8.68;;;;;;;;;;5073711;28;20272;-59
2023/12/14 08:19:02;;;;;;;12.27;10.00;;;;;;;;;;5074003;28;20599;-59
2023/12/14 08:21:29;;;;;;;12.10;9.00;;;;;;;;;;5073881;28;20280;-59
2023/12/14 08:23:57;;;;;;;11.40;9.38;;;;;;;;;;5073937;28;20276;-59
2023/12/14 08:26:24;;;;;;;11.63;9.20;;;;;;;;;;5073840;28;20526;-60
2023/12/14 08:28:51;;;;;;;11.40;9.10;;;;;;;;;;5073700;28;20303;-61
2023/12/14 08:31:20;;;;;;;11.95;9.38;;;;;;;;;;5073787;28;20282;-61
2023/12/14 08:33:47;;;;;;;11.38;9.18;;;;;;;;;;5073497;28;20605;-62
2023/12/14 08:36:16;;;;;;;13.25;10.13;;;;;;;;;;5073849;28;20242;-62
2023/12/14 08:38:43;;;;;;;12.10;10.00;;;;;;;;;;5073736;28;20185;-61
2023/12/14 08:41:15;;;;;;;12.55;9.75;;;;;;;;;;5073524;28;20186;-61
2023/12/14 08:43:42;;;;;;;13.43;10.57;;;;;;;;;;5073638;28;20196;-61
2023/12/14 08:46:10;;;;;;;14.98;11.65;;;;;;;;;;5073489;28;20201;-62
2023/12/14 08:48:37;;;;;;;17.45;12.20;;;;;;;;;;5072958;28;20201;-62
2023/12/14 08:51:04;;;;;;;18.30;12.05;;;;;;;;;;5073403;28;20198;-63
2023/12/14 08:53:32;;;;;;;17.65;11.35;;;;;;;;;;5072869;28;20193;-62
2023/12/14 08:55:58;;;;;;;14.93;11.38;;;;;;;;;;5073370;28;20252;-59
2023/12/14 08:58:26;;;;;;;23.97;15.10;;;;;;;;;;5072819;28;20667;-58
2023/12/14 09:00:53;;;;;;;21.88;13.68;;;;;;;;;;5073173;28;20542;-58
2023/12/14 09:03:21;;;;;;;14.57;11.95;;;;;;;;;;5072957;28;20663;-59
2023/12/14 09:05:48;;;;;;;18.65;12.55;;;;;;;;;;5073023;28;20199;-59
2023/12/14 09:08:15;;;;;;;15.18;11.40;;;;;;;;;;5073068;28;20187;-58
2023/12/14 09:10:42;;;;;;;15.20;11.60;;;;;;;;;;5073073;28;20220;-59
2023/12/14 09:13:09;;;;;;;17.03;11.97;;;;;;;;;;5072980;28;20538;-60
2023/12/14 09:15:37;;;;;;;13.67;11.10;;;;;;;;;;5072920;28;20443;-57
2023/12/14 09:18:05;;;;;;;13.50;10.48;;;;;;;;;;5073112;28;20530;-58
2023/12/14 09:20:32;;;;;;;16.73;11.52;;;;;;;;;;5073001;28;20243;-57
2023/12/14 09:22:59;;;;;;;15.63;11.63;;;;;;;;;;5072873;28;20239;-57
2023/12/14 09:25:26;;;;;;;14.70;12.20;;;;;;;;;;5072911;28;20714;-58
2023/12/14 09:27:53;;;;;;;18.33;12.30;;;;;;;;;;5072624;28;21010;-59
2023/12/14 09:30:20;;;;;;;15.48;12.50;;;;;;;;;;5072351;28;20672;-59
2023/12/14 09:32:49;;;;;;;16.45;13.15;;;;;;;;;;5072930;28;20284;-59
2023/12/14 09:35:15;;;;;;;17.07;10.80;;;;;;;;;;5072842;28;20197;-60
2023/12/14 09:37:42;;;;;;;16.20;11.73;;;;;;;;;;5072803;28;20443;-59
2023/12/14 09:40:11;;;;;;;14.73;11.03;;;;;;;;;;5072675;28;20704;-59
2023/12/14 09:42:39;;;;;;;15.75;11.70;;;;;;;;;;5072615;28;20452;-58
2023/12/14 09:45:08;;;;;;;13.00;9.83;;;;;;;;;;5072897;28;20679;-59
2023/12/14 09:47:35;;;;;;;12.20;9.80;;;;;;;;;;5072465;28;20455;-59
2023/12/14 09:50:04;;;;;;;11.77;10.00;;;;;;;;;;5072548;28;20216;-59
2023/12/14 09:52:32;;;;;;;12.13;9.90;;;;;;;;;;5072893;28;20443;-58
2023/12/14 09:54:59;;;;;;;14.70;9.90;;;;;;;;;;5072377;28;20225;-57
2023/12/14 09:57:26;;;;;;;9.38;8.32;;;;;;;;;;5072945;28;20611;-57
2023/12/14 09:59:53;;;;;;;10.73;8.95;;;;;;;;;;5072715;28;20189;-58
2023/12/14 10:02:20;;;;;;;12.40;9.93;;;;;;;;;;5072724;28;20185;-61
2023/12/14 10:04:48;;;;;;;12.15;9.82;;;;;;;;;;5072114;28;20193;-60
2023/12/14 10:07:16;;;;;;;11.67;10.40;;;;;;;;;;5076007;28;20185;-58
2023/12/14 10:09:44;;;;;;;11.77;9.52;;;;;;;;;;5076165;28;20561;-58
2023/12/14 10:12:11;;;;;;;11.63;10.43;;;;;;;;;;5076501;28;20283;-59
2023/12/14 10:14:39;;;;;;;11.70;9.87;;;;;;;;;;5076408;28;20630;-58
2023/12/14 10:17:16;;;;;;;11.87;10.10;;;;;;;;;;5076379;28;20479;-58
2023/12/14 10:19:43;;;;;;;11.23;10.03;;;;;;;;;;5076005;28;20780;-58
2023/12/14 10:22:10;;;;;;;15.63;10.30;;;;;;;;;;5075715;28;20780;-58
2023/12/14 10:24:40;;;;;;;11.10;8.82;;;;;;;;;;5076270;28;20285;-64
2023/12/14 10:27:07;;;;;;;11.77;9.23;;;;;;;;;;5076241;28;20196;-59
2023/12/14 10:29:35;;;;;;;9.60;8.50;;;;;;;;;;5076003;28;20213;-59
2023/12/14 10:32:03;;;;;;;11.15;8.48;;;;;;;;;;5076005;28;20202;-59
2023/12/14 10:34:30;;;;;;;11.43;8.97;;;;;;;;;;5075916;28;20190;-60
2023/12/14 10:36:57;;;;;;;12.25;10.25;;;;;;;;;;5075875;28;20443;-59
2023/12/14 10:39:25;;;;;;;15.30;9.95;;;;;;;;;;5076023;28;20220;-60
2023/12/14 10:41:55;;;;;;;14.60;11.65;;;;;;;;;;5075981;28;20276;-60
2023/12/14 10:44:22;;;;;;;13.95;11.70;;;;;;;;;;5075780;28;20224;-61
2023/12/14 10:46:49;;;;;;;12.82;10.90;;;;;;;;;;5075976;28;20281;-60
2023/12/14 10:49:17;;;;;;;12.80;10.30;;;;;;;;;;5075508;28;20692;-60
2023/12/14 10:51:44;;;;;;;12.50;9.45;;;;;;;;;;5075722;28;20534;-59
2023/12/14 10:54:11;;;;;;;15.68;10.40;;;;;;;;;;5075664;28;20276;-56
2023/12/14 10:56:38;;;;;;;15.30;11.45;;;;;;;;;;5075402;28;20346;-60
2023/12/14 10:59:06;;;;;;;15.07;10.57;;;;;;;;;;5075400;28;20276;-59
2023/12/14 11:01:35;;;;;;;13.52;10.15;;;;;;;;;;5075360;28;20621;-59
2023/12/14 11:04:02;;;;;;;15.30;11.00;;;;;;;;;;5074720;28;20185;-59
2023/12/14 11:06:33;;;;;;;13.90;10.30;;;;;;;;;;5075531;28;20890;-60
2023/12/14 11:09:00;;;;;;;13.05;10.38;;;;;;;;;;5075402;28;20530;-59
2023/12/14 11:11:31;;;;;;;13.73;10.95;;;;;;;;;;5075163;28;20221;-56
2023/12/14 11:13:58;;;;;;;16.20;12.45;;;;;;;;;;5075410;28;20706;-55
2023/12/14 11:16:29;;;;;;;13.93;11.35;;;;;;;;;;5074661;28;20193;-57
2023/12/14 11:19:15;;;;;;;16.33;12.60;;;;;;;;;;5075049;28;20189;-62
2023/12/14 11:21:41;;;;;;;14.70;10.82;;;;;;;;;;5075228;28;20251;-59
2023/12/14 11:24:08;;;;;;;14.63;11.50;;;;;;;;;;5075006;28;20280;-59
2023/12/14 11:26:35;;;;;;;16.80;12.90;;;;;;;;;;5074878;28;20530;-59
2023/12/14 11:29:04;;;;;;;15.80;13.30;;;;;;;;;;5074795;28;20446;-58
2023/12/14 11:31:32;;;;;;;15.98;12.02;;;;;;;;;;5074984;28;20217;-59
2023/12/14 11:34:03;;;;;;;16.53;12.97;;;;;;;;;;5075282;28;20231;-60
2023/12/14 11:36:30;;;;;;;16.95;13.52;;;;;;;;;;5074819;28;20494;-60
2023/12/14 11:38:57;;;;;;;19.07;14.10;;;;;;;;;;5074759;28;20662;-59
2023/12/14 11:41:25;;;;;;;18.00;13.38;;;;;;;;;;5074696;28;20455;-60
2023/12/14 11:43:52;;;;;;;17.17;14.87;;;;;;;;;;5074498;28;20652;-61
2023/12/14 11:46:19;;;;;;;16.40;13.93;;;;;;;;;;5074377;28;21010;-60
2023/12/14 11:48:48;;;;;;;17.73;14.07;;;;;;;;;;5074747;28;20231;-59
2023/12/14 11:51:16;;;;;;;19.70;14.07;;;;;;;;;;5074471;28;20266;-60
2023/12/14 11:53:45;;;;;;;18.70;14.80;;;;;;;;;;5074465;28;20933;-57
2023/12/14 11:56:12;;;;;;;19.70;13.57;;;;;;;;;;5074186;28;20699;-59
2023/12/14 11:58:42;;;;;;;18.00;13.40;;;;;;;;;;5074292;28;20197;-59
2023/12/14 12:01:13;;;;;;;18.42;14.18;;;;;;;;;;5074390;28;20204;-61
2023/12/14 12:03:40;;;;;;;16.30;12.07;;;;;;;;;;5074320;28;20196;-59
2023/12/14 12:06:09;;;;;;;15.47;13.30;;;;;;;;;;5074239;28;20880;-60
2023/12/14 12:08:42;;;;;;;17.77;12.40;;;;;;;;;;5073604;28;21002;-59
2023/12/14 12:11:09;;;;;;;18.03;14.40;;;;;;;;;;5054357;28;20495;-59
2023/12/14 12:13:36;;;;;;;17.07;14.00;;;;;;;;;;5054242;28;20865;-61
2023/12/14 12:16:03;;;;;;;18.63;14.47;;;;;;;;;;5054158;28;20450;-60
2023/12/14 12:18:30;;;;;;;19.00;14.52;;;;;;;;;;5054215;28;20964;-60
2023/12/14 12:21:00;;;;;;;21.53;13.47;;;;;;;;;;5053717;28;20605;-60
2023/12/14 12:23:28;;;;;;;16.90;12.97;;;;;;;;;;5054026;28;20455;-60
2023/12/14 12:25:55;;;;;;;16.03;14.00;;;;;;;;;;5053907;28;20530;-60
2023/12/14 12:28:22;;;;;;;16.53;13.93;;;;;;;;;;5053373;28;20517;-59
2023/12/14 12:30:49;;;;;;;15.77;13.80;;;;;;;;;;5053622;28;20480;-60
2023/12/14 12:33:16;;;;;;;16.07;13.00;;;;;;;;;;5053801;28;21003;-59
2023/12/14 12:35:43;;;;;;;19.08;13.45;;;;;;;;;;5053780;28;20436;-58
2023/12/14 12:38:10;;;;;;;16.83;12.97;;;;;;;;;;5054012;28;20276;-58
2023/12/14 12:40:39;;;;;;;17.90;13.83;;;;;;;;;;5053693;28;20542;-58
2023/12/14 12:43:06;;;;;;;16.77;13.10;;;;;;;;;;5053420;28;20448;-58
2023/12/14 12:45:35;;;;;;;15.57;13.60;;;;;;;;;;5053573;28;20445;-61
2023/12/14 12:48:03;;;;;;;20.10;13.53;;;;;;;;;;5053143;28;20456;-60
2023/12/14 12:50:30;;;;;;;16.30;12.70;;;;;;;;;;5053185;28;20480;-58
2023/12/14 12:52:57;;;;;;;13.73;11.10;;;;;;;;;;5053345;28;20455;-59
2023/12/14 12:55:24;;;;;;;16.02;13.05;;;;;;;;;;5053062;28;20991;-59
2023/12/14 12:57:52;;;;;;;18.57;13.47;;;;;;;;;;5053106;28;20232;-60
2023/12/14 13:00:19;;;;;;;15.20;12.37;;;;;;;;;;5053160;28;20539;-60
2023/12/14 13:02:47;;;;;;;15.97;12.43;;;;;;;;;;5053334;28;20936;-60
2023/12/14 13:05:13;;;;;;;14.67;12.40;;;;;;;;;;5053225;28;20535;-60
2023/12/14 13:07:41;;;;;;;14.10;11.50;;;;;;;;;;5053140;28;20451;-62
2023/12/14 13:10:10;;;;;;;14.00;10.20;;;;;;;;;;5053136;28;20451;-60
2023/12/14 13:12:37;;;;;;;12.70;9.67;;;;;;;;;;5053080;28;20527;-60
2023/12/14 13:15:05;;;;;;;11.20;9.10;;;;;;;;;;5052941;28;20877;-61
2023/12/14 13:17:32;;;;;;;12.43;10.50;;;;;;;;;;5052917;28;20527;-59
2023/12/14 13:19:59;;;;;;;11.27;9.80;;;;;;;;;;5052984;28;20455;-59
2023/12/14 13:22:26;;;;;;;13.00;10.40;;;;;;;;;;5053085;28;20445;-59
2023/12/14 13:24:54;;;;;;;11.57;10.37;;;;;;;;;;5052943;28;21022;-58
2023/12/14 13:27:21;;;;;;;11.47;9.50;;;;;;;;;;5052856;28;20792;-60
2023/12/14 13:29:48;;;;;;;12.83;10.93;;;;;;;;;;5052583;28;20851;-61
2023/12/14 13:32:16;;;;;;;11.60;10.30;;;;;;;;;;5052599;28;20570;-59
2023/12/14 13:34:43;;;;;;;13.17;10.40;;;;;;;;;;5052903;28;20587;-60
2023/12/14 13:37:10;;;;;;;11.80;9.50;;;;;;;;;;5052805;28;20444;-60
2023/12/14 13:39:37;;;;;;;11.13;9.83;;;;;;;;;;5052004;28;20602;-60
2023/12/14 13:42:05;;;;;;;11.27;9.77;;;;;;;;;;5051182;28;20482;-60
2023/12/14 13:44:34;;;;;;;10.67;9.10;;;;;;;;;;5052092;28;20448;-60
2023/12/14 13:47:01;;;;;;;11.13;9.03;;;;;;;;;;5052101;28;20448;-60
2023/12/14 13:49:29;;;;;;;11.67;10.20;;;;;;;;;;5051766;28;20532;-60
2023/12/14 13:51:56;;;;;;;12.10;8.90;;;;;;;;;;5051724;28;20490;-60
2023/12/14 13:54:24;;;;;;;13.67;9.60;;;;;;;;;;5051863;28;20458;-60
2023/12/14 13:56:51;;;;;;;12.43;9.43;;;;;;;;;;5052410;28;20544;-60
2023/12/14 13:59:18;;;;;;;13.23;9.90;;;;;;;;;;5052957;28;20451;-60
2023/12/14 14:01:45;;;;;;;10.63;9.13;;;;;;;;;;5052700;28;20528;-60
2023/12/14 14:04:12;;;;;;;10.40;9.30;;;;;;;;;;5052758;28;20490;-60
2023/12/14 14:06:40;;;;;;;10.90;9.70;;;;;;;;;;5052916;28;20539;-60
2023/12/14 14:09:08;;;;;;;11.60;9.03;;;;;;;;;;5052369;28;20543;-60
2023/12/14 14:11:35;;;;;;;14.55;9.70;;;;;;;;;;5052513;28;20487;-60
2023/12/14 14:14:03;;;;;;;13.30;10.00;;;;;;;;;;5052508;28;20193;-60
2023/12/14 14:16:31;;;;;;;12.70;11.40;;;;;;;;;;5052427;28;20466;-60
2023/12/14 14:18:58;;;;;;;13.70;10.13;;;;;;;;;;5052377;28;20812;-60
2023/12/14 14:21:25;;;;;;;11.10;9.70;;;;;;;;;;5052554;28;20455;-60
2023/12/14 14:23:53;;;;;;;11.63;10.53;;;;;;;;;;5052284;28;20479;-60
2023/12/14 14:26:20;;;;;;;10.30;9.30;;;;;;;;;;5052168;28;20480;-60